aviador You're here:

LIPY Decoded Metar

FALCONARA (IT-AF in ITALY
Report Time2018-05-21 19:50:00
UTC Time2018-05-21 20:29:41
Flight Rules vfr VFR
WindCalm
Visibility9999 m
Phenomena:N/A
Clouds:Scattered 050 Hf
Expected CloudBase > 2,000 ft AGL from Temp-Dew spread
CeilingNone
Temp20°C (ISA +5)
Dew Point15°C (73% RH)
QNH1012 hPa
Density Alt886 ft
Elevation33 ft
Report Wrong Elevation
Raw Report
METAR LIPY 211950Z 00000KT 9999 SCT050 20/15 Q1012=####018000111####
SAIN31 VABB 212000 RRA

Extra information for LIPY:More info

Metar Taf Metar & Taf Last 4 Metars F.Rules Stats Wind Profile Meteogram Temp Stats Airport Information Weather charts Add Link Nearby VenuesMetar ALERT Operation Metar Decoded Social comments